createdAt,value
2018-04-30T00:00:19.000Z,14.80
2018-04-30T00:02:45.302Z,15.10
2018-04-30T00:05:11.490Z,15.50
2018-04-30T00:07:37.784Z,15.40
2018-04-30T00:10:04.035Z,15.30
2018-04-30T00:12:31.031Z,15.60
2018-04-30T00:14:57.428Z,15.50
2018-04-30T00:17:23.691Z,15.20
2018-04-30T00:19:49.923Z,15.00
2018-04-30T00:22:17.151Z,14.60
2018-04-30T00:24:43.468Z,14.50
2018-04-30T00:27:09.736Z,14.50
2018-04-30T00:29:35.965Z,14.40
2018-04-30T00:32:02.266Z,14.10
2018-04-30T00:34:28.512Z,13.70
2018-04-30T00:36:54.795Z,14.10
2018-04-30T00:39:21.020Z,13.20
2018-04-30T00:41:47.229Z,12.80
2018-04-30T00:44:13.436Z,13.20
2018-04-30T00:46:39.712Z,13.60
2018-04-30T00:49:05.976Z,13.70
2018-04-30T00:51:33.059Z,13.60
2018-04-30T00:53:59.314Z,13.60
2018-04-30T00:56:26.661Z,13.60
2018-04-30T00:58:52.958Z,13.90
2018-04-30T01:01:19.212Z,11.40
2018-04-30T01:03:45.484Z,14.00
2018-04-30T01:06:11.747Z,13.70
2018-04-30T01:08:37.993Z,13.80
2018-04-30T01:11:05.089Z,14.20
2018-04-30T01:13:31.361Z,14.20
2018-04-30T01:15:57.701Z,14.00
2018-04-30T01:18:23.980Z,13.90
2018-04-30T01:20:50.229Z,14.10
2018-04-30T01:23:16.486Z,13.90
2018-04-30T01:25:42.727Z,13.90
2018-04-30T01:28:09.041Z,14.30
2018-04-30T01:30:35.260Z,14.30
2018-04-30T01:33:01.516Z,14.50
2018-04-30T01:35:28.547Z,15.00
2018-04-30T01:37:54.809Z,14.90
2018-04-30T01:40:21.755Z,15.30
2018-04-30T01:42:48.055Z,15.00
2018-04-30T01:45:15.335Z,15.60
2018-04-30T01:47:41.863Z,15.60
2018-04-30T01:50:08.396Z,15.50
2018-04-30T01:52:34.948Z,15.30
2018-04-30T01:55:01.203Z,15.30
2018-04-30T01:57:28.220Z,15.50
2018-04-30T01:59:54.518Z,15.50
2018-04-30T02:02:20.807Z,15.50
2018-04-30T02:04:47.055Z,15.90
2018-04-30T02:07:13.303Z,15.50
2018-04-30T02:09:39.721Z,15.80
2018-04-30T02:12:06.785Z,15.90
2018-04-30T02:14:33.781Z,15.90
2018-04-30T02:17:00.046Z,15.90
2018-04-30T02:19:26.270Z,13.40
2018-04-30T02:21:52.584Z,16.20
2018-04-30T02:24:19.169Z,16.10
2018-04-30T02:26:45.495Z,16.60
2018-04-30T02:29:12.604Z,16.70
2018-04-30T02:31:38.921Z,16.90
2018-04-30T02:34:05.388Z,17.00
2018-04-30T02:36:32.406Z,17.10
2018-04-30T02:38:58.639Z,14.30
2018-04-30T02:41:25.233Z,17.20
2018-04-30T02:43:51.502Z,17.30
2018-04-30T02:46:18.512Z,17.40
2018-04-30T02:48:44.776Z,17.50
2018-04-30T02:51:11.779Z,17.40
2018-04-30T02:53:38.210Z,17.40
2018-04-30T02:56:04.490Z,17.20
2018-04-30T02:58:30.731Z,16.80
2018-04-30T03:00:56.956Z,16.60
2018-04-30T03:03:23.215Z,16.60
2018-04-30T03:05:50.241Z,16.30
2018-04-30T03:08:16.506Z,16.30
2018-04-30T03:10:42.766Z,16.20
2018-04-30T03:13:09.022Z,16.40
2018-04-30T03:15:35.229Z,16.00
2018-04-30T03:18:01.492Z,16.40
2018-04-30T03:20:27.749Z,16.20
2018-04-30T03:22:53.966Z,13.40
2018-04-30T03:25:20.220Z,16.20
2018-04-30T03:27:46.481Z,16.50
2018-04-30T03:30:13.451Z,16.50
2018-04-30T03:32:39.756Z,14.30
2018-04-30T03:35:06.042Z,16.50
2018-04-30T03:37:32.330Z,16.20
2018-04-30T03:39:59.400Z,16.20
2018-04-30T03:42:25.665Z,15.80
2018-04-30T03:44:51.877Z,15.90
2018-04-30T03:47:19.144Z,16.00
2018-04-30T03:49:45.455Z,16.20
2018-04-30T03:52:11.661Z,16.10
2018-04-30T03:54:38.688Z,16.30
2018-04-30T03:57:04.973Z,16.30
2018-04-30T03:59:31.252Z,16.20
2018-04-30T04:02:15.922Z,16.30
2018-04-30T04:05:00.627Z,16.30
2018-04-30T04:07:27.166Z,16.30
2018-04-30T04:09:53.430Z,16.30
2018-04-30T04:12:19.728Z,16.10
2018-04-30T04:14:46.707Z,16.00
2018-04-30T04:17:13.003Z,16.20
2018-04-30T04:22:33.249Z,16.10
2018-04-30T04:24:59.514Z,16.40
2018-04-30T04:27:25.809Z,16.30
2018-04-30T04:29:52.047Z,15.70
2018-04-30T04:32:19.060Z,16.10
2018-04-30T04:34:45.336Z,14.60
2018-04-30T04:40:05.867Z,15.50
2018-04-30T04:42:32.089Z,13.30
2018-04-30T04:44:58.327Z,15.30
2018-04-30T04:47:24.622Z,15.30
2018-04-30T04:49:50.842Z,15.50
2018-04-30T04:52:17.372Z,15.40
2018-04-30T04:54:43.698Z,15.20
2018-04-30T04:57:09.948Z,15.30
2018-04-30T04:59:37.025Z,15.20
2018-04-30T05:02:03.295Z,15.10
2018-04-30T05:04:29.556Z,15.30
2018-04-30T05:06:56.805Z,15.20
2018-04-30T05:09:25.025Z,15.40
2018-04-30T05:11:52.191Z,15.40
2018-04-30T05:14:19.254Z,15.70
2018-04-30T05:16:46.295Z,15.70
2018-04-30T05:19:12.536Z,15.80
2018-04-30T05:21:39.098Z,15.90
2018-04-30T05:24:06.833Z,16.20
2018-04-30T05:26:34.049Z,16.30
2018-04-30T05:29:00.291Z,16.60
2018-04-30T05:31:26.580Z,16.60
2018-04-30T05:33:52.826Z,16.90
2018-04-30T05:36:19.110Z,17.10
2018-04-30T05:38:46.055Z,17.30
2018-04-30T05:41:13.128Z,17.40
2018-04-30T05:43:40.481Z,17.40
2018-04-30T05:46:06.949Z,17.30
2018-04-30T05:48:33.204Z,17.20
2018-04-30T05:50:59.454Z,17.20
2018-04-30T05:53:25.764Z,17.60
2018-04-30T05:55:52.018Z,17.80
2018-04-30T05:58:18.340Z,17.00
2018-04-30T06:00:44.534Z,17.30
2018-04-30T06:03:11.499Z,17.30
2018-04-30T06:05:37.825Z,17.30
2018-04-30T06:08:04.046Z,17.50
2018-04-30T06:10:31.031Z,17.40
2018-04-30T06:12:58.079Z,17.30
2018-04-30T06:15:24.354Z,17.20
2018-04-30T06:17:50.518Z,17.40
2018-04-30T06:20:16.735Z,17.30
2018-04-30T06:22:42.952Z,17.30
2018-04-30T06:25:09.139Z,17.30
2018-04-30T06:27:36.077Z,17.20
2018-04-30T06:30:02.276Z,17.20
2018-04-30T06:32:28.441Z,17.40
2018-04-30T06:34:56.788Z,17.50
2018-04-30T06:37:23.042Z,17.50
2018-04-30T06:39:50.187Z,16.80
2018-04-30T06:42:17.139Z,17.10
2018-04-30T06:44:44.575Z,17.10
2018-04-30T06:47:10.835Z,16.90
2018-04-30T06:49:37.034Z,16.90
2018-04-30T06:52:03.300Z,17.00
2018-04-30T06:54:29.696Z,17.20
2018-04-30T06:56:55.906Z,17.40
2018-04-30T06:59:22.915Z,16.90
2018-04-30T07:01:49.597Z,16.90
2018-04-30T07:04:15.868Z,17.00
2018-04-30T07:06:42.065Z,17.20
2018-04-30T07:09:08.292Z,16.90
2018-04-30T07:11:35.551Z,17.40
2018-04-30T07:14:01.911Z,17.30
2018-04-30T07:16:28.098Z,17.10
2018-04-30T07:18:54.245Z,17.70
2018-04-30T07:21:20.470Z,17.30
2018-04-30T07:23:47.078Z,17.20
2018-04-30T07:26:13.341Z,17.70
2018-04-30T07:28:39.599Z,17.60
2018-04-30T07:31:05.824Z,17.60
2018-04-30T07:33:32.013Z,17.30
2018-04-30T07:35:58.262Z,16.90
2018-04-30T07:38:24.602Z,17.20
2018-04-30T07:40:50.799Z,17.20
2018-04-30T07:43:16.950Z,17.20
2018-04-30T07:45:44.622Z,17.00
2018-04-30T07:48:10.847Z,17.10
2018-04-30T07:50:37.070Z,16.60
2018-04-30T07:53:03.278Z,16.80
2018-04-30T07:55:29.419Z,17.10
2018-04-30T07:57:56.329Z,17.60
2018-04-30T08:00:22.582Z,17.60
2018-04-30T08:02:49.542Z,17.80
2018-04-30T08:05:15.721Z,17.80
2018-04-30T08:07:41.899Z,17.70
2018-04-30T08:10:08.100Z,18.00
2018-04-30T08:15:26.864Z,17.80
2018-04-30T08:17:53.299Z,17.30
2018-04-30T08:20:19.528Z,15.90
2018-04-30T08:22:46.504Z,17.80
2018-04-30T08:25:12.769Z,17.80
2018-04-30T08:27:38.982Z,17.00
2018-04-30T08:30:05.205Z,17.90
2018-04-30T08:32:31.374Z,17.00
2018-04-30T08:34:59.005Z,18.60
2018-04-30T08:37:25.207Z,18.70
2018-04-30T08:39:51.441Z,18.60
2018-04-30T08:42:17.665Z,18.10
2018-04-30T08:44:44.593Z,18.50
2018-04-30T08:47:10.863Z,18.30
2018-04-30T08:49:37.123Z,18.40
2018-04-30T08:52:03.378Z,18.20
2018-04-30T08:54:29.751Z,18.30
2018-04-30T08:56:56.828Z,18.20
2018-04-30T08:59:23.517Z,18.40
2018-04-30T09:01:49.757Z,14.80
2018-04-30T09:04:15.920Z,18.00
2018-04-30T09:06:42.335Z,18.10
2018-04-30T09:09:09.237Z,18.10
2018-04-30T09:11:35.471Z,18.10
2018-04-30T09:14:01.763Z,17.90
2018-04-30T09:16:27.938Z,17.70
2018-04-30T09:18:54.197Z,17.30
2018-04-30T09:21:22.077Z,16.90
2018-04-30T09:23:48.463Z,17.30
2018-04-30T09:26:14.613Z,17.30
2018-04-30T09:28:42.337Z,17.70
2018-04-30T09:31:08.520Z,17.80
2018-04-30T09:33:34.690Z,17.70
2018-04-30T09:36:00.900Z,17.30
2018-04-30T09:38:27.116Z,17.40
2018-04-30T09:40:53.613Z,18.40
2018-04-30T09:43:19.873Z,17.70
2018-04-30T09:45:46.751Z,17.20
2018-04-30T09:48:12.908Z,17.10
2018-04-30T09:50:39.104Z,16.70
2018-04-30T09:53:05.315Z,17.10
2018-04-30T09:55:31.528Z,17.40
2018-04-30T09:57:57.923Z,18.10
2018-04-30T10:00:23.953Z,15.20
2018-04-30T10:02:50.968Z,17.10
2018-04-30T10:05:17.222Z,17.10
2018-04-30T10:07:43.428Z,17.20
2018-04-30T10:10:10.538Z,17.10
2018-04-30T10:12:36.819Z,17.00
2018-04-30T10:15:04.052Z,17.20
2018-04-30T10:17:30.298Z,17.80
2018-04-30T10:19:56.458Z,18.10
2018-04-30T10:22:22.786Z,17.90
2018-04-30T10:24:49.019Z,17.80
2018-04-30T10:27:15.209Z,17.70
2018-04-30T10:29:41.631Z,17.10
2018-04-30T10:32:07.818Z,17.90
2018-04-30T10:34:34.023Z,18.30
2018-04-30T10:37:00.246Z,18.60
2018-04-30T10:39:26.452Z,18.00
2018-04-30T10:41:52.659Z,18.30
2018-04-30T10:44:20.586Z,18.40
2018-04-30T10:46:46.870Z,18.40
2018-04-30T10:49:13.260Z,18.10
2018-04-30T10:51:40.840Z,18.20
2018-04-30T10:54:08.302Z,18.60
2018-04-30T10:56:35.819Z,18.40
2018-04-30T10:59:04.610Z,18.40
2018-04-30T11:01:32.682Z,18.30
2018-04-30T11:03:59.740Z,18.60
2018-04-30T11:06:26.030Z,18.50
2018-04-30T11:08:53.034Z,18.60
2018-04-30T11:11:20.097Z,17.50
2018-04-30T11:13:46.404Z,17.80
2018-04-30T11:16:12.590Z,17.50
2018-04-30T11:18:38.805Z,16.90
2018-04-30T11:21:05.034Z,17.50
2018-04-30T11:23:31.291Z,17.60
2018-04-30T11:26:00.248Z,17.80
2018-04-30T11:28:27.967Z,18.00
2018-04-30T11:30:55.887Z,18.00
2018-04-30T11:33:22.145Z,18.20
2018-04-30T11:35:49.170Z,18.10
2018-04-30T11:38:15.369Z,18.20
2018-04-30T11:40:41.559Z,15.50
2018-04-30T11:43:10.462Z,17.80
2018-04-30T11:45:36.668Z,18.30
2018-04-30T11:48:02.852Z,18.20
2018-04-30T11:50:29.399Z,18.20
2018-04-30T11:52:55.651Z,18.30
2018-04-30T11:55:21.830Z,17.90
2018-04-30T11:57:48.344Z,18.40
2018-04-30T12:00:16.133Z,18.50
2018-04-30T12:02:42.322Z,18.20
2018-04-30T12:05:08.490Z,18.80
2018-04-30T12:07:37.268Z,18.40
2018-04-30T12:10:03.484Z,18.10
2018-04-30T12:12:30.031Z,18.30
2018-04-30T12:14:56.238Z,18.70
2018-04-30T12:17:23.799Z,19.20
2018-04-30T12:19:50.006Z,19.80
2018-04-30T12:22:16.295Z,19.80
2018-04-30T12:24:42.723Z,20.40
2018-04-30T12:27:08.906Z,19.90
2018-04-30T12:29:35.050Z,20.00
2018-04-30T12:32:01.231Z,17.60
2018-04-30T12:34:27.457Z,20.80
2018-04-30T12:36:55.531Z,18.10
2018-04-30T12:39:22.676Z,20.50
2018-04-30T12:41:49.022Z,20.40
2018-04-30T12:44:15.160Z,20.70
2018-04-30T12:46:41.386Z,19.80
2018-04-30T12:49:07.539Z,19.40
2018-04-30T12:51:33.704Z,19.10
2018-04-30T12:53:59.899Z,18.00
2018-04-30T12:56:26.088Z,16.90
2018-04-30T12:58:52.280Z,16.20
2018-04-30T13:01:19.528Z,16.20
2018-04-30T13:03:45.805Z,16.80
2018-04-30T13:06:12.043Z,14.70
2018-04-30T13:08:38.287Z,17.10
2018-04-30T13:11:04.513Z,17.30
2018-04-30T13:13:30.696Z,17.90
2018-04-30T13:15:56.870Z,17.90
2018-04-30T13:18:23.801Z,18.50
2018-04-30T13:20:49.944Z,18.50
2018-04-30T13:23:16.104Z,17.60
2018-04-30T13:25:42.310Z,17.30
2018-04-30T13:28:08.440Z,17.30
2018-04-30T13:30:35.260Z,16.90
2018-04-30T13:33:02.643Z,16.40
2018-04-30T13:35:30.694Z,17.20
2018-04-30T13:38:00.499Z,17.60
2018-04-30T13:40:26.767Z,17.50
2018-04-30T13:42:52.944Z,17.50
2018-04-30T13:45:19.111Z,17.30
2018-04-30T13:47:45.289Z,18.20
2018-04-30T13:50:11.501Z,18.40
2018-04-30T13:52:37.689Z,18.40
2018-04-30T13:55:04.915Z,18.50
2018-04-30T13:57:31.304Z,18.80
2018-04-30T13:59:57.478Z,19.50
2018-04-30T14:02:23.822Z,19.40
2018-04-30T14:04:49.960Z,18.70
2018-04-30T14:07:16.880Z,18.80
2018-04-30T14:09:43.060Z,18.70
2018-04-30T14:12:09.238Z,19.10
2018-04-30T14:14:36.578Z,18.40
2018-04-30T14:17:02.740Z,18.40
2018-04-30T14:19:28.937Z,18.60
2018-04-30T14:21:55.103Z,18.50
2018-04-30T14:24:21.251Z,18.80
2018-04-30T14:26:47.425Z,18.70
2018-04-30T14:29:13.669Z,17.80
2018-04-30T14:31:39.871Z,17.60
2018-04-30T14:34:06.750Z,15.70
2018-04-30T14:36:33.419Z,15.40
2018-04-30T14:38:59.696Z,15.00
2018-04-30T14:41:26.003Z,15.10
2018-04-30T14:43:52.206Z,14.10
2018-04-30T14:46:19.210Z,14.60
2018-04-30T14:48:45.442Z,14.50
2018-04-30T14:51:11.945Z,14.30
2018-04-30T14:53:38.352Z,14.90
2018-04-30T14:56:09.142Z,14.20
2018-04-30T14:58:36.289Z,14.10
2018-04-30T15:01:03.262Z,14.50
2018-04-30T15:03:30.510Z,14.50
2018-04-30T15:05:57.798Z,14.40
2018-04-30T15:08:24.373Z,14.30
2018-04-30T15:10:50.634Z,14.60
2018-04-30T15:13:17.349Z,14.60
2018-04-30T15:15:44.702Z,14.50
2018-04-30T15:18:10.961Z,14.10
2018-04-30T15:20:38.838Z,15.90
2018-04-30T15:23:06.670Z,17.90
2018-04-30T15:25:32.895Z,15.00
2018-04-30T15:27:59.146Z,18.70
2018-04-30T15:30:25.986Z,19.20
2018-04-30T15:32:52.206Z,19.20
2018-04-30T15:35:18.460Z,19.40
2018-04-30T15:37:44.631Z,19.00
2018-04-30T15:40:12.520Z,19.00
2018-04-30T15:42:38.781Z,19.00
2018-04-30T15:45:04.935Z,18.80
2018-04-30T15:47:31.139Z,18.50
2018-04-30T15:49:58.763Z,19.00
2018-04-30T15:52:24.995Z,19.00
2018-04-30T15:54:52.079Z,18.90
2018-04-30T15:57:18.303Z,19.10
2018-04-30T15:59:44.496Z,19.40
2018-04-30T16:02:10.666Z,19.60
2018-04-30T16:04:37.835Z,20.20
2018-04-30T16:07:04.775Z,20.10
2018-04-30T16:09:31.011Z,20.00
2018-04-30T16:11:57.212Z,20.30
2018-04-30T16:14:25.612Z,20.50
2018-04-30T16:16:51.780Z,20.70
2018-04-30T16:19:17.941Z,20.60
2018-04-30T16:21:44.364Z,20.50
2018-04-30T16:24:10.538Z,20.20
2018-04-30T16:26:36.727Z,20.50
2018-04-30T16:29:02.944Z,20.70
2018-04-30T16:31:29.166Z,21.10
2018-04-30T16:33:55.347Z,21.30
2018-04-30T16:36:21.659Z,20.90
2018-04-30T16:38:47.948Z,21.20
2018-04-30T16:41:15.868Z,21.30
2018-04-30T16:43:42.072Z,21.30
2018-04-30T16:46:08.288Z,21.00
2018-04-30T16:48:34.473Z,20.60
2018-04-30T16:51:00.629Z,20.30
2018-04-30T16:53:26.869Z,20.00
2018-04-30T16:55:53.054Z,19.70
2018-04-30T16:58:19.187Z,19.70
2018-04-30T17:00:45.358Z,19.60
2018-04-30T17:03:11.508Z,19.10
2018-04-30T17:05:37.698Z,19.20
2018-04-30T17:08:04.599Z,17.20
2018-04-30T17:10:30.864Z,17.20
2018-04-30T17:12:56.994Z,15.50
2018-04-30T17:15:23.181Z,14.80
2018-04-30T17:17:49.471Z,13.90
2018-04-30T17:20:16.346Z,13.10
2018-04-30T17:22:42.485Z,13.10
2018-04-30T17:25:09.407Z,12.40
2018-04-30T17:27:35.574Z,12.40
2018-04-30T17:30:01.826Z,11.60
2018-04-30T17:32:28.975Z,11.30
2018-04-30T17:34:56.018Z,10.00
2018-04-30T17:37:22.782Z,10.10
2018-04-30T17:39:50.084Z,9.50
2018-04-30T17:42:19.027Z,9.40
2018-04-30T17:44:45.273Z,9.40
2018-04-30T17:47:12.675Z,9.20
2018-04-30T17:49:54.762Z,9.20
2018-04-30T17:52:21.203Z,9.30
2018-04-30T17:54:47.542Z,9.20
2018-04-30T17:57:14.238Z,9.20
2018-04-30T17:59:41.826Z,9.00
2018-04-30T18:02:08.188Z,9.10
2018-04-30T18:04:35.429Z,9.00
2018-04-30T18:07:01.776Z,8.90
2018-04-30T18:09:30.104Z,8.90
2018-04-30T18:11:57.759Z,8.90
2018-04-30T18:14:24.058Z,8.90
2018-04-30T18:16:50.450Z,8.90
2018-04-30T18:19:16.611Z,8.70
2018-04-30T18:21:43.518Z,8.80
2018-04-30T18:24:09.781Z,8.80
2018-04-30T18:26:35.966Z,8.80
2018-04-30T18:29:02.157Z,8.90
2018-04-30T18:31:28.329Z,6.30
2018-04-30T18:33:54.511Z,8.80
2018-04-30T18:36:21.420Z,8.90
2018-04-30T18:38:47.602Z,8.30
2018-04-30T18:41:13.746Z,8.60
2018-04-30T18:43:39.960Z,9.10
2018-04-30T18:46:07.023Z,9.90
2018-04-30T18:48:33.641Z,9.80
2018-04-30T18:50:59.875Z,10.50
2018-04-30T18:53:26.110Z,10.90
2018-04-30T18:55:52.307Z,11.00
2018-04-30T18:58:18.467Z,9.90
2018-04-30T19:00:44.627Z,8.80
2018-04-30T19:03:10.835Z,8.70
2018-04-30T19:05:37.071Z,9.30
2018-04-30T19:08:03.313Z,8.90
2018-04-30T19:10:30.506Z,8.70
2018-04-30T19:12:56.726Z,8.30
2018-04-30T19:15:22.907Z,7.90
2018-04-30T19:17:49.055Z,8.50
2018-04-30T19:28:43.854Z,16.50
2018-04-30T19:31:09.992Z,17.90
2018-04-30T19:33:36.887Z,19.00
2018-04-30T19:36:03.050Z,19.70
2018-04-30T19:38:29.183Z,19.80
2018-04-30T19:40:56.055Z,21.00
2018-04-30T19:43:22.548Z,21.80
2018-04-30T19:45:48.733Z,22.60
2018-04-30T19:48:15.975Z,23.20
2018-04-30T19:50:42.095Z,23.60
2018-04-30T19:53:08.246Z,23.30
2018-04-30T19:55:34.370Z,24.60
2018-04-30T19:58:00.723Z,25.00
2018-04-30T20:00:26.846Z,25.30
2018-04-30T20:02:52.953Z,25.70
2018-04-30T20:05:19.865Z,26.10
2018-04-30T20:07:46.015Z,26.10
2018-04-30T20:10:13.610Z,26.70
2018-04-30T20:12:39.725Z,27.10
2018-04-30T20:15:06.578Z,27.60
2018-04-30T20:17:32.789Z,28.00
2018-04-30T20:19:58.923Z,24.50
2018-04-30T20:22:25.063Z,28.20
2018-04-30T20:24:51.988Z,28.70
2018-04-30T20:27:18.187Z,28.80
2018-04-30T20:29:44.331Z,29.00
2018-04-30T20:32:10.497Z,29.00
2018-04-30T20:34:36.640Z,29.40
2018-04-30T20:37:02.763Z,29.50
2018-04-30T20:39:28.914Z,29.50
2018-04-30T20:41:55.038Z,29.80
2018-04-30T20:44:21.233Z,29.80
2018-04-30T20:46:48.098Z,30.10
2018-04-30T20:49:14.552Z,30.10
2018-04-30T20:51:40.724Z,30.30
2018-04-30T20:54:06.848Z,30.40
2018-04-30T20:56:32.974Z,30.50
2018-04-30T20:58:59.093Z,30.50
2018-04-30T21:01:25.261Z,31.30
2018-04-30T21:03:51.401Z,31.40
2018-04-30T21:06:17.503Z,31.70
2018-04-30T21:09:02.169Z,31.60
2018-04-30T21:11:28.302Z,31.70
2018-04-30T21:13:56.250Z,31.50
2018-04-30T21:16:23.197Z,31.40
2018-04-30T21:18:49.327Z,31.30
2018-04-30T21:21:15.444Z,27.70
2018-04-30T21:23:41.581Z,31.40
2018-04-30T21:26:07.731Z,31.20
2018-04-30T21:28:33.860Z,31.20
2018-04-30T21:31:00.013Z,31.30
2018-04-30T21:33:26.130Z,31.20
2018-04-30T21:35:52.267Z,27.90
2018-04-30T21:38:18.423Z,31.20
2018-04-30T21:40:44.599Z,31.20
2018-04-30T21:43:10.734Z,31.20
2018-04-30T21:45:36.980Z,31.30
2018-04-30T21:48:03.203Z,31.30
2018-04-30T21:50:29.401Z,31.40
2018-04-30T21:52:55.559Z,31.50
2018-04-30T21:55:22.990Z,31.30
2018-04-30T21:57:49.138Z,31.30
2018-04-30T22:00:15.292Z,31.30
2018-04-30T22:02:41.460Z,31.30
2018-04-30T22:05:07.698Z,31.40
2018-04-30T22:07:33.875Z,31.30
2018-04-30T22:10:00.053Z,31.40
2018-04-30T22:12:26.166Z,31.40
2018-04-30T22:14:52.324Z,31.40
2018-04-30T22:17:18.467Z,31.80
2018-04-30T22:19:45.322Z,31.40
2018-04-30T22:22:11.478Z,31.40
2018-04-30T22:24:37.631Z,31.40
2018-04-30T22:27:03.781Z,31.40
2018-04-30T22:29:29.955Z,31.40
2018-04-30T22:31:56.103Z,31.40
2018-04-30T22:34:22.251Z,31.40
2018-04-30T22:36:48.459Z,31.40
2018-04-30T22:39:14.607Z,31.20
2018-04-30T22:41:40.770Z,31.30
2018-04-30T22:44:06.886Z,31.40
2018-04-30T22:46:32.987Z,31.30
2018-04-30T22:48:59.127Z,31.20
2018-04-30T22:51:25.237Z,31.30
2018-04-30T22:53:52.123Z,31.30
2018-04-30T22:56:18.330Z,31.30
2018-04-30T22:58:44.483Z,31.10
2018-04-30T23:01:10.659Z,31.30
2018-04-30T23:03:37.559Z,31.30
2018-04-30T23:06:03.743Z,28.00
2018-04-30T23:08:29.925Z,31.30
2018-04-30T23:10:56.086Z,31.10
2018-04-30T23:13:22.293Z,31.20
2018-04-30T23:15:48.545Z,31.20
2018-04-30T23:18:14.723Z,31.20
2018-04-30T23:20:40.882Z,31.10
2018-04-30T23:23:07.070Z,31.20
2018-04-30T23:25:33.960Z,31.20
2018-04-30T23:28:00.108Z,31.20
2018-04-30T23:30:26.259Z,31.20
2018-04-30T23:32:52.460Z,31.20
2018-04-30T23:35:18.645Z,31.20
2018-04-30T23:37:45.559Z,31.20
2018-04-30T23:40:11.722Z,31.20
2018-04-30T23:42:37.858Z,31.20
2018-04-30T23:45:04.028Z,31.20
2018-04-30T23:47:30.195Z,31.00
2018-04-30T23:49:56.367Z,31.20
2018-04-30T23:52:22.517Z,31.20
2018-04-30T23:54:48.736Z,31.20
2018-04-30T23:57:14.879Z,31.20
2018-04-30T23:59:41.038Z,30.80
